Time,TemperatureF,DewpointF,PressureIn,WindDirection,WindDirectionDegrees,WindSpeedMPH,WindSpeedGustMPH,Humidity,HourlyPrecipIn,Conditions,Clouds,dailyrainin,SolarRadiationWatts/m^2,SoftwareType,DateUTC
2013-10-09 00:05:00,48.0,47.0,-100.00,East,90,0.0,0.0,97,0.00,,,0.00,0.000000,,2013-10-09 04:05:00,
2013-10-09 00:14:00,48.0,47.0,-100.00,East,90,0.0,0.0,97,0.00,,,0.00,0.000000,,2013-10-09 04:14:00,
2013-10-09 00:54:00,47.0,46.0,-100.00,ENE,59,0.0,0.0,98,0.00,,,0.00,0.000000,,2013-10-09 04:54:00,
2013-10-09 01:04:00,47.0,46.0,-100.00,ENE,59,0.0,0.0,98,0.00,,,0.00,0.000000,,2013-10-09 05:04:00,
2013-10-09 01:13:00,47.0,46.0,-100.00,ENE,59,0.0,0.0,98,0.00,,,0.00,0.000000,,2013-10-09 05:13:00,
2013-10-09 01:22:00,47.0,46.0,-100.00,ENE,59,0.0,0.0,98,0.00,,,0.00,0.000000,,2013-10-09 05:22:00,
2013-10-09 01:52:00,46.0,45.0,-100.00,East,83,0.0,0.0,98,0.00,,,0.00,0.000000,,2013-10-09 05:52:00,
2013-10-09 02:02:00,46.0,45.0,-100.00,East,83,0.0,0.0,98,0.00,,,0.00,0.000000,,2013-10-09 06:02:00,
2013-10-09 02:12:00,46.0,45.0,-100.00,East,83,0.0,0.0,98,0.00,,,0.00,0.000000,,2013-10-09 06:12:00,
2013-10-09 02:22:00,46.0,45.0,-100.00,East,83,0.0,0.0,98,0.00,,,0.00,0.000000,,2013-10-09 06:22:00,
2013-10-09 02:52:00,45.0,44.0,-100.00,ESE,104,0.0,0.0,98,0.00,,,0.00,0.000000,,2013-10-09 06:52:00,
2013-10-09 03:02:00,45.0,44.0,-100.00,ESE,104,0.0,0.0,98,0.00,,,0.00,0.000000,,2013-10-09 07:02:00,
2013-10-09 03:12:00,45.0,44.0,-100.00,ESE,104,0.0,0.0,98,0.00,,,0.00,0.000000,,2013-10-09 07:12:00,
2013-10-09 03:22:00,45.0,44.0,-100.00,ESE,104,0.0,0.0,98,0.00,,,0.00,0.000000,,2013-10-09 07:22:00,
2013-10-09 03:23:00,45.0,45.0,-100.00,ESE,114,0.0,0.0,99,0.00,,,0.00,0.000000,,2013-10-09 07:23:00,
2013-10-09 03:52:00,45.0,45.0,-100.00,ESE,114,0.0,0.0,99,0.00,,,0.00,0.000000,,2013-10-09 07:52:00,
2013-10-09 04:02:00,45.0,45.0,-100.00,ESE,114,0.0,0.0,99,0.00,,,0.00,0.000000,,2013-10-09 08:02:00,
2013-10-09 04:12:00,45.0,45.0,-100.00,ESE,114,0.0,0.0,99,0.00,,,0.00,0.000000,,2013-10-09 08:12:00,
2013-10-09 04:53:00,44.0,44.0,-100.00,ESE,115,0.0,0.0,99,0.00,,,0.00,0.000000,,2013-10-09 08:53:00,
2013-10-09 05:02:00,44.0,44.0,-100.00,ESE,115,0.0,0.0,99,0.00,,,0.00,0.000000,,2013-10-09 09:02:00,
2013-10-09 05:11:00,44.0,44.0,-100.00,ESE,115,0.0,0.0,99,0.00,,,0.00,0.000000,,2013-10-09 09:11:00,
2013-10-09 05:22:00,44.0,44.0,-100.00,ESE,115,0.0,0.0,99,0.00,,,0.00,0.000000,,2013-10-09 09:22:00,
2013-10-09 05:23:00,43.0,43.0,-100.00,ESE,118,0.0,0.0,99,0.00,,,0.00,0.000000,,2013-10-09 09:23:00,
2013-10-09 05:53:00,43.0,43.0,-100.00,ESE,118,0.0,0.0,99,0.00,,,0.00,0.000000,,2013-10-09 09:53:00,
2013-10-09 06:03:00,43.0,43.0,-100.00,ESE,118,0.0,0.0,99,0.00,,,0.00,0.000000,,2013-10-09 10:03:00,
2013-10-09 06:13:00,43.0,43.0,-100.00,ESE,118,0.0,0.0,99,0.00,,,0.00,0.000000,,2013-10-09 10:13:00,
2013-10-09 06:53:00,42.0,42.0,-100.00,SE,130,0.0,0.0,99,0.00,,,0.00,0.000000,,2013-10-09 10:53:00,
2013-10-09 07:02:00,42.0,42.0,-100.00,SE,130,0.0,0.0,99,0.00,,,0.00,0.000000,,2013-10-09 11:02:00,
2013-10-09 07:12:00,42.0,42.0,-100.00,SE,130,0.0,0.0,99,0.00,,,0.00,0.000000,,2013-10-09 11:12:00,
2013-10-09 07:22:00,42.0,42.0,-100.00,SE,130,0.0,0.0,99,0.00,,,0.00,0.000000,,2013-10-09 11:22:00,
2013-10-09 07:52:00,42.0,42.0,-100.00,ESE,121,0.0,0.0,99,0.00,,,0.00,0.000000,,2013-10-09 11:52:00,
2013-10-09 08:01:00,42.0,42.0,-100.00,ESE,121,0.0,0.0,99,0.00,,,0.00,0.000000,,2013-10-09 12:01:00,
2013-10-09 08:12:00,42.0,42.0,-100.00,ESE,121,0.0,0.0,99,0.00,,,0.00,0.000000,,2013-10-09 12:12:00,
2013-10-09 08:22:00,42.0,42.0,-100.00,ESE,121,0.0,0.0,99,0.00,,,0.00,0.000000,,2013-10-09 12:22:00,
2013-10-09 09:52:00,45.0,45.0,-100.00,SW,226,0.0,0.0,99,-99.99,,,0.00,28.000000,,2013-10-09 13:52:00,
2013-10-09 10:02:00,45.0,45.0,-100.00,SW,226,0.0,0.0,99,-99.99,,,0.00,28.000000,,2013-10-09 14:02:00,
2013-10-09 10:11:00,45.0,45.0,-100.00,SW,226,0.0,0.0,99,-99.99,,,0.00,28.000000,,2013-10-09 14:11:00,
2013-10-09 10:22:00,45.0,45.0,-100.00,SW,226,0.0,0.0,99,-99.99,,,0.00,28.000000,,2013-10-09 14:22:00,
2013-10-09 10:52:00,51.0,51.0,-100.00,South,184,1.0,4.0,99,0.00,,,0.00,60.000000,,2013-10-09 14:52:00,
2013-10-09 11:02:00,51.0,51.0,-100.00,South,184,1.0,4.0,99,0.00,,,0.00,60.000000,,2013-10-09 15:02:00,
2013-10-09 11:11:00,51.0,51.0,-100.00,South,184,1.0,4.0,99,0.00,,,0.00,60.000000,,2013-10-09 15:11:00,
2013-10-09 11:23:00,58.0,47.0,-100.00,NNE,30,2.0,6.0,66,-99.99,,,0.00,125.000000,,2013-10-09 15:23:00,
2013-10-09 11:54:00,58.0,47.0,-100.00,NNE,30,2.0,6.0,66,-99.99,,,0.00,125.000000,,2013-10-09 15:54:00,
2013-10-09 12:03:00,58.0,47.0,-100.00,NNE,30,2.0,6.0,66,-99.99,,,0.00,125.000000,,2013-10-09 16:03:00,
2013-10-09 12:13:00,58.0,47.0,-100.00,NNE,30,2.0,6.0,66,-99.99,,,0.00,125.000000,,2013-10-09 16:13:00,
2013-10-09 12:53:00,62.0,46.0,-100.00,East,92,2.0,5.0,55,0.00,,,0.00,138.000000,,2013-10-09 16:53:00,
2013-10-09 13:03:00,62.0,46.0,-100.00,East,92,2.0,5.0,55,0.00,,,0.00,138.000000,,2013-10-09 17:03:00,
2013-10-09 13:12:00,62.0,46.0,-100.00,East,92,2.0,5.0,55,0.00,,,0.00,138.000000,,2013-10-09 17:12:00,
2013-10-09 13:22:00,62.0,46.0,-100.00,East,92,2.0,5.0,55,0.00,,,0.00,138.000000,,2013-10-09 17:22:00,
2013-10-09 13:52:00,67.0,44.0,-100.00,ENE,74,2.0,7.0,43,0.00,,,0.00,518.000000,,2013-10-09 17:52:00,
2013-10-09 14:02:00,67.0,44.0,-100.00,ENE,74,2.0,7.0,43,0.00,,,0.00,518.000000,,2013-10-09 18:02:00,
2013-10-09 14:12:00,67.0,44.0,-100.00,ENE,74,2.0,7.0,43,0.00,,,0.00,518.000000,,2013-10-09 18:12:00,
2013-10-09 14:22:00,67.0,44.0,-100.00,ENE,74,2.0,7.0,43,0.00,,,0.00,518.000000,,2013-10-09 18:22:00,
2013-10-09 14:52:00,69.0,44.0,-100.00,NNW,335,2.0,7.0,40,0.00,,,0.00,515.000000,,2013-10-09 18:52:00,
2013-10-09 15:02:00,69.0,44.0,-100.00,NNW,335,2.0,7.0,40,0.00,,,0.00,515.000000,,2013-10-09 19:02:00,
2013-10-09 15:11:00,69.0,44.0,-100.00,NNW,335,2.0,7.0,40,0.00,,,0.00,515.000000,,2013-10-09 19:11:00,
2013-10-09 15:22:00,69.0,44.0,-100.00,NNW,335,2.0,7.0,40,0.00,,,0.00,515.000000,,2013-10-09 19:22:00,
2013-10-09 15:53:00,69.0,43.0,-100.00,East,96,3.0,6.0,39,0.00,,,0.00,494.000000,,2013-10-09 19:53:00,
2013-10-09 16:02:00,69.0,43.0,-100.00,East,96,3.0,6.0,39,0.00,,,0.00,494.000000,,2013-10-09 20:02:00,
2013-10-09 16:11:00,69.0,43.0,-100.00,East,96,3.0,6.0,39,0.00,,,0.00,494.000000,,2013-10-09 20:11:00,
2013-10-09 16:22:00,69.0,43.0,-100.00,East,96,3.0,6.0,39,0.00,,,0.00,494.000000,,2013-10-09 20:22:00,
2013-10-09 16:52:00,69.0,42.0,-100.00,ESE,109,2.0,5.0,37,0.00,,,0.00,157.000000,,2013-10-09 20:52:00,
2013-10-09 17:03:00,69.0,42.0,-100.00,ESE,109,2.0,5.0,37,0.00,,,0.00,157.000000,,2013-10-09 21:03:00,
2013-10-09 17:12:00,69.0,42.0,-100.00,ESE,109,2.0,5.0,37,0.00,,,0.00,157.000000,,2013-10-09 21:12:00,
2013-10-09 17:22:00,69.0,42.0,-100.00,ESE,109,2.0,5.0,37,0.00,,,0.00,157.000000,,2013-10-09 21:22:00,
2013-10-09 17:23:00,67.0,42.0,-100.00,East,99,2.0,5.0,40,0.00,,,0.00,105.000000,,2013-10-09 21:23:00,
2013-10-09 17:54:00,67.0,42.0,-100.00,East,99,2.0,5.0,40,0.00,,,0.00,105.000000,,2013-10-09 21:54:00,
2013-10-09 18:03:00,67.0,42.0,-100.00,East,99,2.0,5.0,40,0.00,,,0.00,105.000000,,2013-10-09 22:03:00,
2013-10-09 18:13:00,67.0,42.0,-100.00,East,99,2.0,5.0,40,0.00,,,0.00,105.000000,,2013-10-09 22:13:00,
2013-10-09 19:12:00,62.0,46.0,-100.00,ESE,111,2.0,5.0,55,0.00,,,0.00,37.000000,,2013-10-09 23:12:00,
2013-10-09 19:22:00,62.0,46.0,-100.00,ESE,111,2.0,5.0,55,0.00,,,0.00,37.000000,,2013-10-09 23:22:00,
2013-10-09 20:52:00,52.0,45.0,-100.00,East,93,1.0,2.0,76,-99.99,,,0.00,0.000000,,2013-10-10 00:52:00,
2013-10-09 21:02:00,52.0,45.0,-100.00,East,93,1.0,2.0,76,-99.99,,,0.00,0.000000,,2013-10-10 01:02:00,
2013-10-09 21:11:00,52.0,45.0,-100.00,East,93,1.0,2.0,76,-99.99,,,0.00,0.000000,,2013-10-10 01:11:00,
2013-10-09 21:21:00,52.0,45.0,-100.00,East,93,1.0,2.0,76,-99.99,,,0.00,0.000000,,2013-10-10 01:21:00,
2013-10-09 21:52:00,50.0,46.0,-100.00,East,94,0.0,0.0,87,0.00,,,0.00,0.000000,,2013-10-10 01:52:00,
2013-10-09 22:02:00,50.0,46.0,-100.00,East,94,0.0,0.0,87,0.00,,,0.00,0.000000,,2013-10-10 02:02:00,
2013-10-09 22:12:00,50.0,46.0,-100.00,East,94,0.0,0.0,87,0.00,,,0.00,0.000000,,2013-10-10 02:12:00,
2013-10-09 22:22:00,50.0,46.0,-100.00,East,94,0.0,0.0,87,0.00,,,0.00,0.000000,,2013-10-10 02:22:00,
2013-10-09 23:12:00,49.0,48.0,-100.00,ESE,110,1.0,2.0,95,0.00,,,0.00,0.000000,,2013-10-10 03:12:00,
2013-10-09 23:22:00,49.0,48.0,-100.00,ESE,110,1.0,2.0,95,0.00,,,0.00,0.000000,,2013-10-10 03:22:00,
2013-10-09 23:23:00,47.0,46.0,-100.00,ENE,71,0.0,2.0,96,0.00,,,0.00,0.000000,,2013-10-10 03:23:00,
2013-10-09 23:55:00,47.0,46.0,-100.00,ENE,71,0.0,2.0,96,0.00,,,0.00,0.000000,,2013-10-10 03:55:00,